Airfield :
LOGIN :

Register | Disclaimer

   EN    FR    IT 

 










Legend :    VFR   Marginal VFR   IFR   Intensive IFR   Very Intensive IFR
Visi :
Ceiling :
>= 8 km
>= 3000ft
5 to 8 km
1000 to 3000 ft
1500m to 5 km
500 to 1000 ft
800 to 1500m
200 to 500 ft
< 800m
< 200 ft
Symbols :   Thunderstorms  Fog  Heavy snow  Heavy precipitations  Wind > 20 kt
SIGMETs :     Misc.  Thunderstorms  Icing  Turbulence  Mountain Waves  Volcanic Ashes







- Airport Elevation : 1674 ft
- IATA code : BRN


LSZB - Bern Belp

CURRENT METAR :
  • 162150Z AUTO VRB03KT 9999 SCT050 BKN070 01/M01 Q1019

EXPIRED METARs :
  • 162120Z AUTO VRB01KT 9999 SCT035 BKN047 01/M01 Q1019
  • 162050Z AUTO VRB02KT 9999 SCT026 SCT034 OVC041 02/M01 Q1019
  • 162020Z AUTO VRB02KT 9999 FEW032 BKN041 02/M01 Q1018
  • 161950Z AUTO 27004KT 230V010 9999 SCT032 BKN037 01/M01 Q1018
  • 161920Z AUTO VRB03KT 9999 FEW015 BKN031 BKN039 01/M01 Q1018 RESN

TAF TAF LSZB
Valid from the 16 at 15:00 until the 17 at 00:00 UTC


161425Z 1615/1624 26009KT 9999 BKN030 OVC050
TEMPO 1615/1618 3500 SHRASN BKN012
TEMPO 1615/1624 2500 SHSN BKN007
ATIS : +41 22 417 40 76
No reported NOTAMs for that airfield.



MET'MAP, your aeronautical weather chart ! - Copyright ORBIFLY December 2007 - Disclaimer

ORBIFLY MET'MAP TEAM :

Programming & Development : Alexandra Zaïnal
Concept & Development : Baudouin d'Aumeries
Co-Development & Prog : Marc-Olivier Méhu
Technical & hardware support : Manuel Goepfert

Contact : metmap@orbifly.com




SOURCES & CREDITS :

   NOAA